Time;durP1;ratioP1;P1;durP2;ratioP2;P2;SDS_P1;SDS_P2;PMS_P1;PMS_P2;Temp;Humidity;BMP_temperature;BMP_pressure;BME280_temperature;BME280_humidity;BME280_pressure;Samples;Min_cycle;Max_cycle;Signal;HPM_P1;HPM_P2
2022/09/17 00:04:14;;;;;;;6.15;2.08;;;;;;;;;;5111505;27;20411;-72
2022/09/17 00:08:38;;;;;;;5.25;1.70;;;;;;;;;;5111554;27;20426;-72
2022/09/17 00:11:12;;;;;;;6.18;2.03;;;;;;;;;;5111369;28;20024;-72
2022/09/17 00:13:38;;;;;;;4.70;1.70;;;;;;;;;;5110792;28;20062;-72
2022/09/17 00:17:17;;;;;;;3.65;1.50;;;;;;;;;;5111680;27;20384;-71
2022/09/17 00:24:10;;;;;;;3.35;1.40;;;;;;;;;;5111467;27;20389;-72
2022/09/17 00:26:36;;;;;;;3.20;1.58;;;;;;;;;;5110928;28;20075;-73
2022/09/17 00:29:02;;;;;;;5.80;1.70;;;;;;;;;;5111470;28;20493;-70
2022/09/17 00:31:49;;;;;;;6.10;2.17;;;;;;;;;;5112008;27;20380;-73
2022/09/17 00:37:46;;;;;;;5.25;1.88;;;;;;;;;;5111940;27;20385;-71
2022/09/17 00:40:12;;;;;;;4.28;1.70;;;;;;;;;;5110980;28;20050;-72
2022/09/17 00:42:38;;;;;;;5.32;1.70;;;;;;;;;;5111287;28;20499;-71
2022/09/17 00:45:04;;;;;;;4.38;1.80;;;;;;;;;;5111273;28;20031;-71
2022/09/17 00:50:36;;;;;;;4.10;1.70;;;;;;;;;;5111807;27;20392;-72
2022/09/17 00:53:06;;;;;;;6.22;1.75;;;;;;;;;;5111240;28;20395;-71
2022/09/17 00:57:05;;;;;;;2.95;1.45;;;;;;;;;;5111519;27;20422;-73
2022/09/17 00:59:32;;;;;;;6.35;1.77;;;;;;;;;;5111287;28;20016;-73
2022/09/17 01:01:58;;;;;;;4.45;2.00;;;;;;;;;;5111038;28;20090;-71
2022/09/17 01:05:31;;;;;;;5.35;1.85;;;;;;;;;;5111715;27;20414;-73
2022/09/17 01:08:25;;;;;;;5.05;2.00;;;;;;;;;;5111113;27;20920;-72
2022/09/17 01:11:08;;;;;;;7.72;2.95;;;;;;;;;;5111539;28;20023;-73
2022/09/17 01:16:12;;;;;;;6.43;1.60;;;;;;;;;;5111188;27;20990;-73
2022/09/17 01:18:57;;;;;;;2.88;1.55;;;;;;;;;;5111299;28;20133;-70
2022/09/17 01:24:57;;;;;;;4.05;1.55;;;;;;;;;;5111616;27;20421;-70
2022/09/17 01:28:43;;;;;;;8.45;1.65;;;;;;;;;;5111562;27;20457;-71
2022/09/17 01:34:07;;;;;;;3.85;1.83;;;;;;;;;;5111711;27;20449;-71
2022/09/17 01:36:33;;;;;;;5.90;2.00;;;;;;;;;;5110924;28;20380;-71
2022/09/17 01:39:02;;;;;;;4.95;1.30;;;;;;;;;;5111162;28;20037;-71
2022/09/17 01:45:14;;;;;;;3.75;2.38;;;;;;;;;;5070668;28;20387;-72
2022/09/17 01:49:40;;;;;;;3.47;1.50;;;;;;;;;;5111809;27;20426;-73
2022/09/17 01:53:50;;;;;;;3.92;1.42;;;;;;;;;;5111652;27;20916;-73
2022/09/17 01:57:23;;;;;;;5.70;2.17;;;;;;;;;;5111126;27;20422;-73
2022/09/17 02:00:01;;;;;;;6.88;2.10;;;;;;;;;;5127108;28;20055;-73
2022/09/17 02:03:52;;;;;;;6.72;2.20;;;;;;;;;;5111736;27;20518;-73
2022/09/17 02:12:52;;;;;;;7.07;1.85;;;;;;;;;;5111087;27;20561;-72
2022/09/17 02:15:22;;;;;;;4.00;2.17;;;;;;;;;;5111512;28;20024;-70
2022/09/17 02:17:51;;;;;;;7.60;2.00;;;;;;;;;;5111291;28;20032;-73
2022/09/17 02:22:02;;;;;;;3.85;2.25;;;;;;;;;;5111547;27;20422;-72
2022/09/17 02:24:42;;;;;;;4.93;1.90;;;;;;;;;;5111487;27;20397;-71
2022/09/17 02:27:20;;;;;;;5.05;2.42;;;;;;;;;;5110973;28;20035;-71
2022/09/17 02:32:02;;;;;;;9.27;2.10;;;;;;;;;;5111156;27;20550;-71
2022/09/17 02:34:29;;;;;;;7.72;2.45;;;;;;;;;;5111686;28;20024;-71
2022/09/17 02:36:57;;;;;;;6.10;2.35;;;;;;;;;;5111274;28;20062;-71
2022/09/17 02:40:35;;;;;;;6.13;2.10;;;;;;;;;;5111220;27;20572;-71
2022/09/17 02:43:19;;;;;;;8.50;2.25;;;;;;;;;;5111601;28;20024;-72
2022/09/17 02:45:48;;;;;;;6.97;2.45;;;;;;;;;;5111282;28;20111;-72
2022/09/17 02:48:22;;;;;;;4.55;1.88;;;;;;;;;;5110754;28;20476;-72
2022/09/17 02:53:01;;;;;;;4.93;2.30;;;;;;;;;;5112352;27;20401;-72
2022/09/17 02:55:51;;;;;;;5.18;1.65;;;;;;;;;;5111325;28;20024;-72
2022/09/17 02:58:22;;;;;;;4.90;1.98;;;;;;;;;;5082813;28;20498;-72
2022/09/17 03:00:48;;;;;;;5.93;2.13;;;;;;;;;;5110965;28;20442;-71
2022/09/17 03:06:13;;;;;;;7.45;2.17;;;;;;;;;;5111520;27;20568;-71
2022/09/17 03:11:25;;;;;;;6.82;2.63;;;;;;;;;;5173378;27;20748;-72
2022/09/17 03:13:51;;;;;;;8.48;2.08;;;;;;;;;;5152470;27;20026;-72
2022/09/17 03:16:17;;;;;;;6.32;2.03;;;;;;;;;;5152104;27;20409;-73
2022/09/17 03:18:43;;;;;;;6.68;2.40;;;;;;;;;;5152688;27;20076;-71
2022/09/17 03:26:48;;;;;;;6.65;2.20;;;;;;;;;;5111595;27;20762;-72
2022/09/17 03:37:04;;;;;;;6.38;2.63;;;;;;;;;;5070583;28;20566;-73
2022/09/17 03:39:30;;;;;;;5.63;2.00;;;;;;;;;;5070687;28;20115;-73
2022/09/17 03:41:57;;;;;;;4.18;1.90;;;;;;;;;;5070585;28;20032;-71
2022/09/17 03:45:17;;;;;;;4.30;1.92;;;;;;;;;;5111457;27;20418;-71
2022/09/17 03:47:44;;;;;;;5.68;2.38;;;;;;;;;;5111183;28;20527;-71
2022/09/17 03:50:10;;;;;;;11.15;2.78;;;;;;;;;;5110939;28;20026;-71
2022/09/17 03:52:36;;;;;;;7.40;2.53;;;;;;;;;;5111144;28;20095;-71
2022/09/17 03:55:03;;;;;;;5.18;2.22;;;;;;;;;;5111021;28;20388;-71
2022/09/17 04:02:13;;;;;;;5.97;2.33;;;;;;;;;;5111820;27;20798;-70
2022/09/17 04:04:39;;;;;;;8.15;2.67;;;;;;;;;;5110906;28;20031;-73
2022/09/17 04:07:05;;;;;;;10.05;2.72;;;;;;;;;;5111297;28;20019;-73
2022/09/17 04:09:31;;;;;;;8.38;3.08;;;;;;;;;;5111163;28;20021;-71
2022/09/17 04:12:33;;;;;;;9.68;3.10;;;;;;;;;;5110915;27;20113;-73
2022/09/17 04:14:59;;;;;;;6.63;2.83;;;;;;;;;;5111313;28;20031;-73
2022/09/17 04:17:25;;;;;;;5.70;2.30;;;;;;;;;;5110866;28;20027;-73
2022/09/17 04:19:52;;;;;;;6.68;2.90;;;;;;;;;;5111495;28;20028;-72
2022/09/17 04:22:18;;;;;;;5.70;3.33;;;;;;;;;;5111236;28;20099;-72
2022/09/17 04:24:44;;;;;;;8.63;3.13;;;;;;;;;;5110695;28;20024;-71
2022/09/17 04:28:56;;;;;;;10.18;4.95;;;;;;;;;;5111503;27;20388;-71
2022/09/17 04:31:23;;;;;;;11.68;3.60;;;;;;;;;;5111910;28;20392;-71
2022/09/17 04:35:45;;;;;;;9.02;3.13;;;;;;;;;;5111430;27;20388;-72
2022/09/17 04:38:17;;;;;;;7.45;2.63;;;;;;;;;;5111272;28;20062;-71
2022/09/17 04:40:43;;;;;;;8.25;2.88;;;;;;;;;;5110946;28;20035;-71
2022/09/17 04:43:10;;;;;;;8.57;3.13;;;;;;;;;;5111250;28;20103;-72
2022/09/17 04:52:24;;;;;;;8.20;3.10;;;;;;;;;;5112185;27;20557;-73
2022/09/17 04:54:50;;;;;;;8.00;3.17;;;;;;;;;;5110906;28;20030;-73
2022/09/17 04:57:16;;;;;;;11.55;3.45;;;;;;;;;;5111397;28;20501;-73
2022/09/17 05:00:09;;;;;;;11.15;3.70;;;;;;;;;;5111106;27;20392;-73
2022/09/17 05:03:55;;;;;;;10.57;4.93;;;;;;;;;;5111466;27;20393;-73
2022/09/17 05:07:41;;;;;;;7.70;3.50;;;;;;;;;;5070425;28;20395;-73
2022/09/17 05:10:08;;;;;;;10.52;3.97;;;;;;;;;;5070794;28;20021;-73
2022/09/17 05:12:34;;;;;;;6.38;3.20;;;;;;;;;;5070655;28;20029;-71
2022/09/17 05:15:00;;;;;;;9.02;3.15;;;;;;;;;;5070524;28;20547;-72
2022/09/17 05:17:26;;;;;;;5.75;3.35;;;;;;;;;;5070771;28;20067;-73
2022/09/17 05:22:21;;;;;;;9.32;3.63;;;;;;;;;;5111184;27;20637;-71
2022/09/17 05:24:47;;;;;;;8.23;2.97;;;;;;;;;;5111305;28;20016;-71
2022/09/17 05:27:13;;;;;;;8.23;3.97;;;;;;;;;;5111184;28;20023;-72
2022/09/17 05:29:39;;;;;;;5.72;3.20;;;;;;;;;;5110791;28;20416;-72
2022/09/17 05:32:06;;;;;;;12.82;3.80;;;;;;;;;;5111229;28;20024;-72
2022/09/17 05:38:39;;;;;;;10.40;4.30;;;;;;;;;;5111536;27;20381;-71
2022/09/17 05:41:06;;;;;;;6.20;3.65;;;;;;;;;;5111261;28;20023;-71
2022/09/17 05:45:26;;;;;;;8.98;4.10;;;;;;;;;;5111756;27;20918;-73
2022/09/17 05:47:59;;;;;;;9.55;4.50;;;;;;;;;;5110053;28;20024;-72
2022/09/17 05:51:04;;;;;;;11.40;4.45;;;;;;;;;;5110890;27;20565;-71
2022/09/17 05:53:30;;;;;;;7.75;4.40;;;;;;;;;;5111402;28;20058;-71
2022/09/17 05:57:33;;;;;;;10.10;4.57;;;;;;;;;;5070286;28;20115;-72
2022/09/17 06:00:00;;;;;;;10.68;4.25;;;;;;;;;;5070694;28;20102;-73
2022/09/17 06:02:26;;;;;;;9.50;4.40;;;;;;;;;;5070514;28;20032;-71
2022/09/17 06:06:58;;;;;;;9.18;3.25;;;;;;;;;;5111489;27;20396;-73
2022/09/17 06:13:19;;;;;;;12.43;3.80;;;;;;;;;;5111329;27;20392;-72
2022/09/17 06:17:41;;;;;;;7.45;3.50;;;;;;;;;;5111547;27;20557;-73
2022/09/17 06:20:07;;;;;;;14.77;4.85;;;;;;;;;;5111642;28;20480;-71
2022/09/17 06:22:33;;;;;;;10.10;4.60;;;;;;;;;;5111545;28;20016;-71
2022/09/17 06:25:01;;;;;;;8.60;4.68;;;;;;;;;;5110927;28;20020;-71
2022/09/17 06:29:30;;;;;;;11.77;5.15;;;;;;;;;;5111984;27;20603;-71
2022/09/17 06:31:56;;;;;;;8.23;3.90;;;;;;;;;;5110953;28;20016;-73
2022/09/17 06:34:22;;;;;;;12.65;4.95;;;;;;;;;;5111238;28;20028;-71
2022/09/17 06:36:49;;;;;;;8.70;4.30;;;;;;;;;;5111207;28;20065;-72
2022/09/17 06:39:15;;;;;;;14.07;5.80;;;;;;;;;;5110874;28;20091;-71
2022/09/17 06:41:42;;;;;;;12.73;5.07;;;;;;;;;;5111161;28;20107;-71
2022/09/17 06:44:08;;;;;;;12.15;6.20;;;;;;;;;;5111400;28;20026;-71
2022/09/17 06:46:34;;;;;;;12.48;5.60;;;;;;;;;;5110610;28;20020;-71
2022/09/17 06:49:00;;;;;;;15.82;7.65;;;;;;;;;;5110952;28;20069;-71
2022/09/17 06:52:25;;;;;;;11.85;5.63;;;;;;;;;;5110907;27;20405;-71
2022/09/17 06:55:50;;;;;;;14.07;6.20;;;;;;;;;;5111939;27;20397;-71
2022/09/17 06:59:16;;;;;;;10.50;4.32;;;;;;;;;;5111672;27;20560;-71
2022/09/17 07:01:42;;;;;;;9.52;4.47;;;;;;;;;;5111366;28;20019;-71
2022/09/17 07:04:37;;;;;;;8.60;4.07;;;;;;;;;;5091712;27;20398;-70
2022/09/17 07:09:28;;;;;;;7.50;3.00;;;;;;;;;;5071000;28;20924;-72
2022/09/17 07:11:54;;;;;;;10.93;4.45;;;;;;;;;;5070759;28;20386;-72
2022/09/17 07:14:20;;;;;;;7.60;3.50;;;;;;;;;;5070250;28;20035;-72
2022/09/17 07:16:46;;;;;;;6.45;2.95;;;;;;;;;;5070693;28;20063;-72
2022/09/17 07:19:12;;;;;;;7.15;3.38;;;;;;;;;;5070582;28;20021;-72
2022/09/17 07:23:04;;;;;;;10.27;3.65;;;;;;;;;;5173867;27;20126;-70
2022/09/17 07:25:30;;;;;;;9.70;4.47;;;;;;;;;;5152373;27;20025;-71
2022/09/17 07:27:57;;;;;;;10.55;4.75;;;;;;;;;;5151894;27;20034;-71
2022/09/17 07:30:23;;;;;;;15.10;4.80;;;;;;;;;;5152306;27;20471;-72
2022/09/17 07:32:49;;;;;;;9.93;5.03;;;;;;;;;;5152320;27;20535;-71
2022/09/17 07:35:16;;;;;;;11.40;5.28;;;;;;;;;;5151847;27;20038;-71
2022/09/17 07:39:06;;;;;;;9.70;4.75;;;;;;;;;;5111843;27;20574;-70
2022/09/17 07:41:33;;;;;;;11.60;5.20;;;;;;;;;;5110851;28;20028;-71
2022/09/17 07:47:08;;;;;;;11.10;3.65;;;;;;;;;;5111536;27;20959;-71
2022/09/17 07:50:17;;;;;;;10.98;4.15;;;;;;;;;;5111031;27;20393;-72
2022/09/17 07:54:43;;;;;;;9.25;3.95;;;;;;;;;;5111699;27;20912;-71
2022/09/17 07:57:09;;;;;;;10.68;5.07;;;;;;;;;;5109525;28;20028;-72
2022/09/17 08:01:02;;;;;;;14.25;5.03;;;;;;;;;;5111491;27;20617;-72
2022/09/17 08:04:13;;;;;;;11.93;5.55;;;;;;;;;;5110908;27;20389;-72
2022/09/17 08:06:40;;;;;;;10.45;4.68;;;;;;;;;;5111383;28;20103;-71
2022/09/17 08:09:06;;;;;;;11.60;3.47;;;;;;;;;;5111462;28;20403;-71
2022/09/17 08:13:04;;;;;;;9.52;3.08;;;;;;;;;;5111378;27;20388;-70
2022/09/17 08:15:48;;;;;;;11.32;3.15;;;;;;;;;;5111607;27;20381;-72
2022/09/17 08:18:16;;;;;;;10.73;3.10;;;;;;;;;;5110859;28;20495;-71
2022/09/17 08:20:42;;;;;;;9.80;2.65;;;;;;;;;;5111153;28;20024;-71
2022/09/17 08:23:41;;;;;;;7.38;2.80;;;;;;;;;;5131615;27;20104;-72
2022/09/17 08:26:11;;;;;;;12.18;3.88;;;;;;;;;;5131780;28;20077;-71
2022/09/17 08:28:37;;;;;;;11.75;3.33;;;;;;;;;;5130278;28;20019;-71
2022/09/17 08:31:07;;;;;;;9.52;3.65;;;;;;;;;;5131404;28;20019;-71
2022/09/17 08:33:34;;;;;;;9.45;3.90;;;;;;;;;;5131929;28;20058;-71
2022/09/17 08:36:01;;;;;;;11.45;5.13;;;;;;;;;;5131861;28;20098;-71
2022/09/17 08:40:19;;;;;;;10.35;4.68;;;;;;;;;;5111366;27;20422;-71
2022/09/17 08:42:53;;;;;;;11.38;4.00;;;;;;;;;;5111230;28;20027;-72
2022/09/17 08:47:24;;;;;;;10.77;4.65;;;;;;;;;;5111868;27;20953;-70
2022/09/17 08:51:27;;;;;;;12.70;5.22;;;;;;;;;;5071286;28;20556;-68
2022/09/17 08:54:27;;;;;;;11.23;5.60;;;;;;;;;;5111560;27;20569;-68
2022/09/17 08:57:03;;;;;;;12.40;5.68;;;;;;;;;;5112029;28;20383;-68
2022/09/17 08:59:34;;;;;;;16.02;6.03;;;;;;;;;;5110790;28;20453;-68
2022/09/17 09:02:19;;;;;;;8.50;4.78;;;;;;;;;;5111511;28;20379;-68
2022/09/17 09:05:05;;;;;;;10.18;4.60;;;;;;;;;;5111369;28;20375;-69
2022/09/17 09:07:36;;;;;;;15.00;4.93;;;;;;;;;;5110736;28;20034;-69
2022/09/17 09:12:35;;;;;;;14.98;6.63;;;;;;;;;;5111512;27;20735;-68
2022/09/17 09:15:04;;;;;;;11.45;6.13;;;;;;;;;;5110780;28;20035;-69
2022/09/17 09:19:05;;;;;;;12.18;5.05;;;;;;;;;;5111488;27;20388;-68
2022/09/17 09:23:11;;;;;;;10.55;4.18;;;;;;;;;;5112044;27;20616;-69
2022/09/17 09:25:41;;;;;;;13.50;4.07;;;;;;;;;;5111294;28;20027;-68
2022/09/17 09:29:55;;;;;;;10.50;4.15;;;;;;;;;;5152959;27;20118;-69
2022/09/17 09:33:29;;;;;;;8.88;3.13;;;;;;;;;;5111805;27;20648;-70
2022/09/17 09:35:56;;;;;;;12.20;2.88;;;;;;;;;;5111143;28;20103;-69
2022/09/17 09:38:48;;;;;;;6.40;2.35;;;;;;;;;;5111199;28;20031;-69
2022/09/17 09:41:21;;;;;;;9.93;2.30;;;;;;;;;;5111113;28;20065;-69
2022/09/17 09:45:23;;;;;;;6.05;3.00;;;;;;;;;;5105096;27;1437140;-69
2022/09/17 09:48:05;;;;;;;7.60;2.72;;;;;;;;;;5132174;28;20031;-69
2022/09/17 09:51:11;;;;;;;8.88;2.47;;;;;;;;;;5111900;27;20513;-70
2022/09/17 09:54:02;;;;;;;8.75;2.88;;;;;;;;;;5111435;28;20028;-70
2022/09/17 09:57:02;;;;;;;8.35;2.22;;;;;;;;;;5110948;27;20404;-69
2022/09/17 09:59:29;;;;;;;6.70;2.47;;;;;;;;;;5111317;28;20516;-69
2022/09/17 10:01:55;;;;;;;5.97;3.00;;;;;;;;;;5111205;28;20069;-71
2022/09/17 10:04:21;;;;;;;9.77;2.30;;;;;;;;;;5110755;28;20020;-69
2022/09/17 10:07:16;;;;;;;6.35;2.25;;;;;;;;;;5111540;27;20827;-69
2022/09/17 10:09:44;;;;;;;8.05;2.40;;;;;;;;;;5110943;28;20020;-69
2022/09/17 10:15:31;;;;;;;4.55;1.60;;;;;;;;;;5111700;27;20764;-70
2022/09/17 10:18:12;;;;;;;5.60;2.15;;;;;;;;;;5111124;28;20032;-70
2022/09/17 10:21:14;;;;;;;5.18;2.00;;;;;;;;;;5111191;28;20047;-70
2022/09/17 10:24:22;;;;;;;4.50;1.70;;;;;;;;;;5111338;27;20998;-69
2022/09/17 10:27:28;;;;;;;5.95;1.65;;;;;;;;;;5111810;27;20589;-69
2022/09/17 10:30:10;;;;;;;5.85;1.85;;;;;;;;;;5111213;28;20020;-70
2022/09/17 10:40:19;;;;;;;6.38;2.28;;;;;;;;;;5111505;27;20389;-71
2022/09/17 10:43:25;;;;;;;6.88;2.53;;;;;;;;;;5070774;28;20399;-69
2022/09/17 10:48:27;;;;;;;4.35;2.58;;;;;;;;;;5111967;27;20570;-71
2022/09/17 10:52:43;;;;;;;7.50;2.35;;;;;;;;;;5110981;27;20389;-70
2022/09/17 10:55:34;;;;;;;5.50;2.08;;;;;;;;;;5111520;27;20573;-70
2022/09/17 10:58:03;;;;;;;7.53;2.83;;;;;;;;;;5111531;28;20027;-69
2022/09/17 11:07:34;;;;;;;11.23;5.80;;;;;;;;;;5110891;27;20394;-69
2022/09/17 11:12:07;;;;;;;8.63;3.78;;;;;;;;;;5111968;27;20508;-70
2022/09/17 11:16:24;;;;;;;12.10;6.25;;;;;;;;;;5111681;27;20580;-71
2022/09/17 11:19:05;;;;;;;11.15;6.30;;;;;;;;;;5111529;28;20384;-71
2022/09/17 11:22:23;;;;;;;10.77;5.85;;;;;;;;;;5111404;27;20569;-70
2022/09/17 11:25:50;;;;;;;11.57;4.38;;;;;;;;;;5111430;27;20569;-69
2022/09/17 11:29:51;;;;;;;7.22;3.28;;;;;;;;;;5112093;27;21077;-69
2022/09/17 11:32:20;;;;;;;7.13;2.45;;;;;;;;;;5127076;28;20032;-69
2022/09/17 11:35:41;;;;;;;6.38;2.78;;;;;;;;;;5111006;27;20423;-69
2022/09/17 11:38:51;;;;;;;5.88;2.53;;;;;;;;;;5173802;27;20106;-69
2022/09/17 11:43:26;;;;;;;7.90;3.05;;;;;;;;;;5111627;27;20384;-70
2022/09/17 11:45:58;;;;;;;7.72;3.38;;;;;;;;;;5111540;28;20028;-71
2022/09/17 11:49:02;;;;;;;8.70;4.03;;;;;;;;;;5111040;27;20381;-69
2022/09/17 11:51:43;;;;;;;9.18;4.47;;;;;;;;;;5111230;28;20028;-70
2022/09/17 11:54:28;;;;;;;7.13;3.60;;;;;;;;;;5111512;28;20133;-69
2022/09/17 11:57:05;;;;;;;5.13;3.20;;;;;;;;;;5111247;28;20480;-70
2022/09/17 11:59:37;;;;;;;6.47;2.80;;;;;;;;;;5111382;28;20024;-70
2022/09/17 12:02:42;;;;;;;6.95;3.10;;;;;;;;;;5111335;27;20546;-69
2022/09/17 12:06:34;;;;;;;4.80;2.53;;;;;;;;;;5112034;27;20393;-71
2022/09/17 12:17:02;;;;;;;7.80;2.78;;;;;;;;;;5111086;27;20388;-72
2022/09/17 12:19:32;;;;;;;4.82;2.03;;;;;;;;;;5109847;28;20032;-72
2022/09/17 12:22:22;;;;;;;5.13;2.47;;;;;;;;;;5111770;27;20532;-70
2022/09/17 12:24:52;;;;;;;4.80;2.08;;;;;;;;;;5110817;28;20099;-70
2022/09/17 12:27:24;;;;;;;6.85;2.35;;;;;;;;;;5111418;28;20091;-70
2022/09/17 12:30:06;;;;;;;3.95;2.15;;;;;;;;;;5110947;28;20027;-70
2022/09/17 12:32:47;;;;;;;4.85;2.17;;;;;;;;;;5111021;28;20056;-70
2022/09/17 12:35:16;;;;;;;3.38;2.20;;;;;;;;;;5111102;28;20054;-70
2022/09/17 12:39:59;;;;;;;6.20;2.60;;;;;;;;;;5111923;27;20543;-72
2022/09/17 12:42:34;;;;;;;5.35;2.42;;;;;;;;;;5111288;28;20040;-72
2022/09/17 12:47:01;;;;;;;12.93;6.85;;;;;;;;;;5111359;27;20557;-72
2022/09/17 12:49:46;;;;;;;10.65;5.93;;;;;;;;;;5111548;28;20050;-72
2022/09/17 12:52:27;;;;;;;14.85;6.50;;;;;;;;;;5110903;28;20024;-72
2022/09/17 12:54:59;;;;;;;14.65;8.15;;;;;;;;;;5111421;28;20421;-72
2022/09/17 12:57:25;;;;;;;15.10;7.77;;;;;;;;;;5111367;28;20024;-70
2022/09/17 12:59:59;;;;;;;11.93;6.47;;;;;;;;;;5109374;28;20048;-71
2022/09/17 13:02:33;;;;;;;6.65;3.22;;;;;;;;;;5111057;28;20076;-72
2022/09/17 13:05:50;;;;;;;7.82;3.17;;;;;;;;;;5111342;27;20389;-69
2022/09/17 13:08:35;;;;;;;8.10;2.92;;;;;;;;;;5111240;28;20495;-71
2022/09/17 13:11:27;;;;;;;5.70;2.13;;;;;;;;;;5111302;28;20024;-71
2022/09/17 13:16:49;;;;;;;9.32;3.25;;;;;;;;;;5111515;27;20422;-69
2022/09/17 13:19:27;;;;;;;6.80;2.80;;;;;;;;;;5111125;28;20027;-72
2022/09/17 13:23:12;;;;;;;7.07;2.85;;;;;;;;;;5111399;27;20846;-72
2022/09/17 13:27:37;;;;;;;4.40;2.30;;;;;;;;;;5111018;27;20449;-69
2022/09/17 13:33:32;;;;;;;8.75;3.30;;;;;;;;;;5131770;27;20459;-69
2022/09/17 13:35:58;;;;;;;7.18;3.00;;;;;;;;;;5111165;28;20039;-70
2022/09/17 13:38:25;;;;;;;16.10;10.40;;;;;;;;;;5111224;28;20077;-72
2022/09/17 13:41:29;;;;;;;9.88;5.00;;;;;;;;;;5069205;28;20410;-70
2022/09/17 13:43:56;;;;;;;6.32;3.83;;;;;;;;;;5070686;28;20024;-69
2022/09/17 13:46:23;;;;;;;8.95;2.75;;;;;;;;;;5070951;28;20047;-72
2022/09/17 13:52:33;;;;;;;7.57;2.90;;;;;;;;;;5111691;27;20555;-70
2022/09/17 13:57:02;;;;;;;11.93;3.45;;;;;;;;;;5111668;27;20385;-70
2022/09/17 13:59:29;;;;;;;6.18;3.08;;;;;;;;;;5111324;28;20035;-70
2022/09/17 14:03:20;;;;;;;5.35;2.10;;;;;;;;;;5110909;27;20563;-69
2022/09/17 14:05:46;;;;;;;4.90;1.48;;;;;;;;;;5111152;28;20024;-69
2022/09/17 14:12:02;;;;;;;6.85;2.08;;;;;;;;;;5112050;27;20929;-70
2022/09/17 14:14:28;;;;;;;7.88;2.17;;;;;;;;;;5110292;28;20492;-71
2022/09/17 14:17:52;;;;;;;5.43;1.92;;;;;;;;;;5112197;27;20546;-69
2022/09/17 14:20:20;;;;;;;6.78;2.17;;;;;;;;;;5111249;28;20028;-70
2022/09/17 14:25:28;;;;;;;4.45;1.77;;;;;;;;;;5111793;27;20768;-72
2022/09/17 14:28:51;;;;;;;5.78;2.28;;;;;;;;;;5111546;27;20419;-71
2022/09/17 14:41:39;;;;;;;4.38;2.22;;;;;;;;;;5111419;27;20629;-72
2022/09/17 14:45:05;;;;;;;6.90;3.97;;;;;;;;;;5173056;27;20114;-71
2022/09/17 14:47:32;;;;;;;6.45;2.30;;;;;;;;;;5152487;27;20019;-71
2022/09/17 14:50:18;;;;;;;5.40;2.15;;;;;;;;;;5152378;27;20050;-70
2022/09/17 14:52:48;;;;;;;3.05;1.60;;;;;;;;;;5152166;27;20020;-70
2022/09/17 14:55:22;;;;;;;4.10;2.20;;;;;;;;;;5152375;27;20023;-70
2022/09/17 14:59:52;;;;;;;5.22;2.70;;;;;;;;;;5110768;27;20453;-70
2022/09/17 15:03:21;;;;;;;3.88;1.67;;;;;;;;;;5173390;27;20106;-72
2022/09/17 15:05:49;;;;;;;3.90;1.58;;;;;;;;;;5152236;27;20491;-72
2022/09/17 15:08:16;;;;;;;4.65;1.70;;;;;;;;;;5152490;27;20387;-72
2022/09/17 15:10:45;;;;;;;4.57;1.92;;;;;;;;;;5152571;27;20029;-70
2022/09/17 15:13:15;;;;;;;4.00;1.63;;;;;;;;;;5151811;27;20416;-72
2022/09/17 15:21:33;;;;;;;3.70;1.38;;;;;;;;;;5112150;27;20953;-72
2022/09/17 15:24:49;;;;;;;3.08;1.40;;;;;;;;;;5112214;27;20373;-71
2022/09/17 15:28:26;;;;;;;5.43;2.10;;;;;;;;;;5091550;27;20382;-71
2022/09/17 15:31:16;;;;;;;3.95;2.25;;;;;;;;;;5111727;27;20861;-71
2022/09/17 15:34:30;;;;;;;3.78;2.13;;;;;;;;;;5070424;28;20992;-73
2022/09/17 15:37:04;;;;;;;4.78;1.70;;;;;;;;;;5070684;28;20029;-70
2022/09/17 15:39:31;;;;;;;4.03;1.98;;;;;;;;;;5070402;28;20505;-70
2022/09/17 15:41:58;;;;;;;3.25;1.63;;;;;;;;;;5070406;28;20104;-70
2022/09/17 15:44:25;;;;;;;3.05;1.15;;;;;;;;;;5070418;28;20036;-70
2022/09/17 15:48:00;;;;;;;4.18;1.73;;;;;;;;;;5110950;27;20876;-70
2022/09/17 15:50:50;;;;;;;3.35;1.67;;;;;;;;;;5111450;27;20553;-70
2022/09/17 15:55:30;;;;;;;4.38;1.60;;;;;;;;;;5111105;27;20385;-70
2022/09/17 15:57:59;;;;;;;2.15;1.40;;;;;;;;;;5111744;28;20031;-70
2022/09/17 16:00:25;;;;;;;2.70;1.38;;;;;;;;;;5111267;28;20027;-71
2022/09/17 16:02:52;;;;;;;3.80;1.85;;;;;;;;;;5110863;28;20055;-70
2022/09/17 16:05:18;;;;;;;2.72;1.38;;;;;;;;;;5111122;28;20020;-72
2022/09/17 16:07:45;;;;;;;4.68;1.83;;;;;;;;;;5111224;28;20024;-72
2022/09/17 16:10:11;;;;;;;3.08;1.25;;;;;;;;;;5110677;28;20044;-72
2022/09/17 16:12:38;;;;;;;2.72;1.50;;;;;;;;;;5109695;28;20085;-71
2022/09/17 16:15:04;;;;;;;2.33;1.33;;;;;;;;;;5110500;28;20483;-72
2022/09/17 16:17:42;;;;;;;3.53;1.90;;;;;;;;;;5110870;28;20572;-72
2022/09/17 16:23:13;;;;;;;6.82;2.00;;;;;;;;;;5111123;27;20392;-70
2022/09/17 16:25:40;;;;;;;6.93;3.17;;;;;;;;;;5111476;28;20430;-71
2022/09/17 16:29:18;;;;;;;6.38;2.97;;;;;;;;;;5111477;27;20441;-70
2022/09/17 16:33:30;;;;;;;10.68;5.43;;;;;;;;;;5112125;27;20388;-70
2022/09/17 16:35:56;;;;;;;15.15;5.65;;;;;;;;;;5111299;28;20039;-71
2022/09/17 16:41:25;;;;;;;15.45;9.27;;;;;;;;;;5070896;28;20744;-71
2022/09/17 16:44:46;;;;;;;13.30;7.63;;;;;;;;;;5090830;27;20563;-72
2022/09/17 16:47:23;;;;;;;10.13;5.80;;;;;;;;;;5111993;27;20621;-70
2022/09/17 16:49:49;;;;;;;8.50;4.70;;;;;;;;;;5111428;28;20016;-71
2022/09/17 16:54:49;;;;;;;7.45;2.88;;;;;;;;;;5091517;27;20386;-73
2022/09/17 16:57:15;;;;;;;4.63;2.22;;;;;;;;;;5090595;28;20087;-72
2022/09/17 16:59:42;;;;;;;3.35;2.00;;;;;;;;;;5090868;28;20055;-72
2022/09/17 17:02:09;;;;;;;5.35;1.73;;;;;;;;;;5090866;28;20024;-70
2022/09/17 17:06:51;;;;;;;12.30;2.60;;;;;;;;;;5112048;27;20570;-70
2022/09/17 17:09:18;;;;;;;4.15;2.20;;;;;;;;;;5111225;28;20020;-71
2022/09/17 17:11:44;;;;;;;6.50;2.10;;;;;;;;;;5110811;28;20578;-71
2022/09/17 17:14:10;;;;;;;4.78;1.90;;;;;;;;;;5111323;28;20035;-72
2022/09/17 17:18:23;;;;;;;3.40;1.52;;;;;;;;;;5111431;27;20572;-72
2022/09/17 17:20:49;;;;;;;3.53;1.73;;;;;;;;;;5111780;28;20034;-72
2022/09/17 17:23:16;;;;;;;4.55;1.80;;;;;;;;;;5111435;28;20043;-72
2022/09/17 17:25:42;;;;;;;4.28;2.30;;;;;;;;;;5110994;28;20069;-72
2022/09/17 17:28:08;;;;;;;4.80;2.05;;;;;;;;;;5110080;28;20023;-72
2022/09/17 17:31:06;;;;;;;4.05;1.73;;;;;;;;;;5112044;27;20396;-71
2022/09/17 17:33:32;;;;;;;3.08;1.70;;;;;;;;;;5110993;28;20058;-71
2022/09/17 17:36:02;;;;;;;5.78;2.83;;;;;;;;;;5111184;28;20051;-71
2022/09/17 17:41:53;;;;;;;5.70;2.38;;;;;;;;;;5111358;27;21063;-71
2022/09/17 17:49:33;;;;;;;4.30;1.95;;;;;;;;;;5111814;27;20926;-72
2022/09/17 17:52:00;;;;;;;4.90;1.73;;;;;;;;;;5111330;28;20384;-72
2022/09/17 17:59:04;;;;;;;5.90;2.10;;;;;;;;;;5111819;27;20633;-72
2022/09/17 18:03:34;;;;;;;5.00;2.58;;;;;;;;;;5112138;27;20569;-70
2022/09/17 18:06:04;;;;;;;4.43;2.00;;;;;;;;;;5111218;28;20031;-70
2022/09/17 18:10:11;;;;;;;4.38;1.90;;;;;;;;;;5112065;27;20389;-72
2022/09/17 18:12:38;;;;;;;3.58;1.95;;;;;;;;;;5111423;28;20028;-70
2022/09/17 18:15:05;;;;;;;3.55;1.80;;;;;;;;;;5110852;28;20055;-70
2022/09/17 18:19:00;;;;;;;4.43;1.52;;;;;;;;;;5112296;27;20532;-72
2022/09/17 18:21:53;;;;;;;4.05;2.13;;;;;;;;;;5111566;27;20591;-72
2022/09/17 18:24:19;;;;;;;5.82;1.95;;;;;;;;;;5111151;28;20055;-70
2022/09/17 18:26:45;;;;;;;4.38;1.83;;;;;;;;;;5111319;28;20437;-70
2022/09/17 18:29:11;;;;;;;2.97;1.80;;;;;;;;;;5110798;28;20028;-70
2022/09/17 18:31:37;;;;;;;2.67;1.23;;;;;;;;;;5111390;28;20429;-70
2022/09/17 18:34:05;;;;;;;3.30;1.75;;;;;;;;;;5111151;28;20494;-70
2022/09/17 18:36:33;;;;;;;5.30;1.75;;;;;;;;;;5110642;28;20036;-71
2022/09/17 18:39:53;;;;;;;2.70;1.80;;;;;;;;;;5112050;27;20609;-69
2022/09/17 18:47:17;;;;;;;3.28;1.60;;;;;;;;;;5111587;27;20922;-72
2022/09/17 18:51:37;;;;;;;3.10;1.80;;;;;;;;;;5110920;27;20561;-70
2022/09/17 18:54:17;;;;;;;4.97;1.73;;;;;;;;;;5111240;27;20654;-72
2022/09/17 18:56:43;;;;;;;4.65;1.83;;;;;;;;;;5110753;28;20020;-72
2022/09/17 18:59:10;;;;;;;3.75;2.10;;;;;;;;;;5111166;28;20463;-71
2022/09/17 19:01:36;;;;;;;4.30;2.22;;;;;;;;;;5111158;28;20468;-71
2022/09/17 19:04:02;;;;;;;6.78;2.75;;;;;;;;;;5110639;28;20136;-71
2022/09/17 19:06:30;;;;;;;5.07;2.15;;;;;;;;;;5109753;28;20027;-71
2022/09/17 19:09:00;;;;;;;6.40;1.95;;;;;;;;;;5110975;28;20016;-70
2022/09/17 19:11:26;;;;;;;4.05;2.75;;;;;;;;;;5110517;28;20104;-70
2022/09/17 19:15:32;;;;;;;4.90;2.03;;;;;;;;;;5111812;27;20557;-72
2022/09/17 19:17:59;;;;;;;4.50;1.98;;;;;;;;;;5110899;28;20028;-72
2022/09/17 19:20:25;;;;;;;5.40;2.30;;;;;;;;;;5111153;28;20028;-70
2022/09/17 19:22:52;;;;;;;4.63;2.10;;;;;;;;;;5109868;28;20076;-72
2022/09/17 19:25:22;;;;;;;7.65;2.05;;;;;;;;;;5110784;28;20074;-72
2022/09/17 19:27:48;;;;;;;4.57;2.30;;;;;;;;;;5111093;28;20097;-72
2022/09/17 19:30:14;;;;;;;7.28;1.98;;;;;;;;;;5111325;28;20055;-72
2022/09/17 19:36:17;;;;;;;5.22;2.20;;;;;;;;;;5111369;27;20563;-72
2022/09/17 19:38:43;;;;;;;7.05;2.28;;;;;;;;;;5111219;28;20034;-72
2022/09/17 19:46:54;;;;;;;4.15;1.88;;;;;;;;;;5173087;27;20110;-69
2022/09/17 19:51:30;;;;;;;2.17;1.48;;;;;;;;;;5111469;27;20740;-72
2022/09/17 19:54:06;;;;;;;3.88;1.98;;;;;;;;;;5111139;27;20556;-70
2022/09/17 19:57:19;;;;;;;3.08;1.80;;;;;;;;;;5111467;27;20557;-71
2022/09/17 20:00:54;;;;;;;4.43;1.98;;;;;;;;;;5111412;27;20556;-71
2022/09/17 20:04:19;;;;;;;3.80;2.30;;;;;;;;;;5111561;27;21073;-72